sensor_id;sensor_type;location;lat;lon;timestamp;P1;durP1;ratioP1;P2;durP2;ratioP2
77978;SDS011;67169;50.268;8.694;2024-03-02T00:00:35;5.15;;;3.28;;
77978;SDS011;67169;50.268;8.694;2024-03-02T00:03:04;6.28;;;3.65;;
77978;SDS011;67169;50.268;8.694;2024-03-02T00:05:30;4.25;;;2.65;;
77978;SDS011;67169;50.268;8.694;2024-03-02T00:07:57;4.85;;;3.00;;
77978;SDS011;67169;50.268;8.694;2024-03-02T00:10:25;4.57;;;2.22;;
77978;SDS011;67169;50.268;8.694;2024-03-02T00:12:56;6.60;;;4.18;;
77978;SDS011;67169;50.268;8.694;2024-03-02T00:15:29;6.45;;;3.92;;
77978;SDS011;67169;50.268;8.694;2024-03-02T00:18:08;7.50;;;3.75;;
77978;SDS011;67169;50.268;8.694;2024-03-02T00:20:36;6.78;;;3.42;;
77978;SDS011;67169;50.268;8.694;2024-03-02T00:23:04;5.72;;;3.85;;
77978;SDS011;67169;50.268;8.694;2024-03-02T00:25:36;4.10;;;2.90;;
77978;SDS011;67169;50.268;8.694;2024-03-02T00:28:05;3.10;;;2.80;;
77978;SDS011;67169;50.268;8.694;2024-03-02T00:30:43;3.78;;;2.55;;
77978;SDS011;67169;50.268;8.694;2024-03-02T00:33:30;3.78;;;2.33;;
77978;SDS011;67169;50.268;8.694;2024-03-02T00:35:57;4.00;;;2.22;;
77978;SDS011;67169;50.268;8.694;2024-03-02T00:38:24;5.00;;;2.85;;
77978;SDS011;67169;50.268;8.694;2024-03-02T00:40:52;4.38;;;2.83;;
77978;SDS011;67169;50.268;8.694;2024-03-02T00:43:38;2.40;;;2.20;;
77978;SDS011;67169;50.268;8.694;2024-03-02T00:46:07;3.30;;;2.35;;
77978;SDS011;67169;50.268;8.694;2024-03-02T00:48:35;5.50;;;2.95;;
77978;SDS011;67169;50.268;8.694;2024-03-02T00:51:02;4.30;;;2.83;;
77978;SDS011;67169;50.268;8.694;2024-03-02T00:53:29;7.05;;;2.60;;
77978;SDS011;67169;50.268;8.694;2024-03-02T00:55:57;5.00;;;3.33;;
77978;SDS011;67169;50.268;8.694;2024-03-02T00:58:24;5.20;;;2.67;;
77978;SDS011;67169;50.268;8.694;2024-03-02T01:00:50;3.30;;;2.67;;
77978;SDS011;67169;50.268;8.694;2024-03-02T01:03:17;4.03;;;2.92;;
77978;SDS011;67169;50.268;8.694;2024-03-02T01:05:45;4.78;;;3.38;;
77978;SDS011;67169;50.268;8.694;2024-03-02T01:08:12;5.13;;;2.97;;
77978;SDS011;67169;50.268;8.694;2024-03-02T01:10:38;4.07;;;2.42;;
77978;SDS011;67169;50.268;8.694;2024-03-02T01:13:05;5.57;;;3.00;;
77978;SDS011;67169;50.268;8.694;2024-03-02T01:15:31;5.15;;;3.38;;
77978;SDS011;67169;50.268;8.694;2024-03-02T01:17:58;3.40;;;3.03;;
77978;SDS011;67169;50.268;8.694;2024-03-02T01:20:24;5.03;;;3.17;;
77978;SDS011;67169;50.268;8.694;2024-03-02T01:22:52;7.18;;;2.80;;
77978;SDS011;67169;50.268;8.694;2024-03-02T01:25:19;5.15;;;3.50;;
77978;SDS011;67169;50.268;8.694;2024-03-02T01:27:45;4.75;;;3.20;;
77978;SDS011;67169;50.268;8.694;2024-03-02T01:30:11;4.78;;;3.75;;
77978;SDS011;67169;50.268;8.694;2024-03-02T01:32:38;6.53;;;3.40;;
77978;SDS011;67169;50.268;8.694;2024-03-02T01:35:05;5.75;;;3.83;;
77978;SDS011;67169;50.268;8.694;2024-03-02T01:37:32;7.18;;;4.55;;
77978;SDS011;67169;50.268;8.694;2024-03-02T01:40:00;6.45;;;2.92;;
77978;SDS011;67169;50.268;8.694;2024-03-02T01:44:54;3.28;;;2.55;;
77978;SDS011;67169;50.268;8.694;2024-03-02T01:47:20;5.07;;;2.85;;
77978;SDS011;67169;50.268;8.694;2024-03-02T01:49:47;5.38;;;4.07;;
77978;SDS011;67169;50.268;8.694;2024-03-02T01:52:13;7.13;;;3.08;;
77978;SDS011;67169;50.268;8.694;2024-03-02T01:54:40;7.13;;;3.25;;
77978;SDS011;67169;50.268;8.694;2024-03-02T01:57:07;8.30;;;3.58;;
77978;SDS011;67169;50.268;8.694;2024-03-02T01:59:34;8.05;;;5.20;;
77978;SDS011;67169;50.268;8.694;2024-03-02T02:02:01;4.60;;;3.33;;
77978;SDS011;67169;50.268;8.694;2024-03-02T02:04:27;5.97;;;4.00;;
77978;SDS011;67169;50.268;8.694;2024-03-02T02:06:53;8.32;;;4.68;;
77978;SDS011;67169;50.268;8.694;2024-03-02T02:09:20;10.45;;;4.22;;
77978;SDS011;67169;50.268;8.694;2024-03-02T02:11:46;6.40;;;3.97;;
77978;SDS011;67169;50.268;8.694;2024-03-02T02:14:14;5.53;;;4.13;;
77978;SDS011;67169;50.268;8.694;2024-03-02T02:19:08;6.45;;;3.50;;
77978;SDS011;67169;50.268;8.694;2024-03-02T02:21:36;6.90;;;3.92;;
77978;SDS011;67169;50.268;8.694;2024-03-02T02:24:03;8.57;;;4.45;;
77978;SDS011;67169;50.268;8.694;2024-03-02T02:26:30;6.55;;;4.15;;
77978;SDS011;67169;50.268;8.694;2024-03-02T02:28:56;4.15;;;3.17;;
77978;SDS011;67169;50.268;8.694;2024-03-02T02:31:23;5.75;;;4.25;;
77978;SDS011;67169;50.268;8.694;2024-03-02T02:33:50;5.90;;;4.05;;
77978;SDS011;67169;50.268;8.694;2024-03-02T02:36:16;6.38;;;4.57;;
77978;SDS011;67169;50.268;8.694;2024-03-02T02:38:44;8.07;;;3.90;;
77978;SDS011;67169;50.268;8.694;2024-03-02T02:41:13;5.50;;;3.92;;
77978;SDS011;67169;50.268;8.694;2024-03-02T02:43:40;7.53;;;4.47;;
77978;SDS011;67169;50.268;8.694;2024-03-02T02:46:06;11.02;;;5.10;;
77978;SDS011;67169;50.268;8.694;2024-03-02T02:48:33;7.53;;;4.47;;
77978;SDS011;67169;50.268;8.694;2024-03-02T02:51:00;5.93;;;3.75;;
77978;SDS011;67169;50.268;8.694;2024-03-02T02:53:27;8.40;;;4.25;;
77978;SDS011;67169;50.268;8.694;2024-03-02T02:55:55;7.90;;;4.20;;
77978;SDS011;67169;50.268;8.694;2024-03-02T02:58:21;11.27;;;4.80;;
77978;SDS011;67169;50.268;8.694;2024-03-02T03:00:48;6.70;;;4.78;;
77978;SDS011;67169;50.268;8.694;2024-03-02T03:03:14;6.95;;;4.22;;
77978;SDS011;67169;50.268;8.694;2024-03-02T03:05:41;7.82;;;4.63;;
77978;SDS011;67169;50.268;8.694;2024-03-02T03:08:07;10.30;;;5.53;;
77978;SDS011;67169;50.268;8.694;2024-03-02T03:10:34;5.65;;;4.30;;
77978;SDS011;67169;50.268;8.694;2024-03-02T03:13:01;7.00;;;4.57;;
77978;SDS011;67169;50.268;8.694;2024-03-02T03:15:28;6.32;;;4.40;;
77978;SDS011;67169;50.268;8.694;2024-03-02T03:17:54;10.15;;;5.05;;
77978;SDS011;67169;50.268;8.694;2024-03-02T03:20:21;8.73;;;5.18;;
77978;SDS011;67169;50.268;8.694;2024-03-02T03:22:48;10.73;;;5.45;;
77978;SDS011;67169;50.268;8.694;2024-03-02T03:25:15;8.93;;;4.75;;
77978;SDS011;67169;50.268;8.694;2024-03-02T03:27:41;9.02;;;5.85;;
77978;SDS011;67169;50.268;8.694;2024-03-02T03:30:10;10.73;;;5.53;;
77978;SDS011;67169;50.268;8.694;2024-03-02T03:32:37;10.43;;;5.57;;
77978;SDS011;67169;50.268;8.694;2024-03-02T03:35:04;10.98;;;5.40;;
77978;SDS011;67169;50.268;8.694;2024-03-02T03:37:31;11.85;;;5.95;;
77978;SDS011;67169;50.268;8.694;2024-03-02T03:39:58;13.80;;;6.00;;
77978;SDS011;67169;50.268;8.694;2024-03-02T03:42:26;10.77;;;5.22;;
77978;SDS011;67169;50.268;8.694;2024-03-02T03:44:52;9.95;;;6.20;;
77978;SDS011;67169;50.268;8.694;2024-03-02T03:47:20;12.30;;;5.57;;
77978;SDS011;67169;50.268;8.694;2024-03-02T03:49:47;13.73;;;6.47;;
77978;SDS011;67169;50.268;8.694;2024-03-02T03:52:13;10.73;;;6.43;;
77978;SDS011;67169;50.268;8.694;2024-03-02T03:54:40;11.80;;;6.60;;
77978;SDS011;67169;50.268;8.694;2024-03-02T03:57:08;11.15;;;6.63;;
77978;SDS011;67169;50.268;8.694;2024-03-02T03:59:34;10.02;;;5.95;;
77978;SDS011;67169;50.268;8.694;2024-03-02T04:02:02;16.38;;;7.85;;
77978;SDS011;67169;50.268;8.694;2024-03-02T04:04:30;15.00;;;7.53;;
77978;SDS011;67169;50.268;8.694;2024-03-02T04:06:56;17.05;;;7.35;;
77978;SDS011;67169;50.268;8.694;2024-03-02T04:09:23;14.85;;;7.10;;
77978;SDS011;67169;50.268;8.694;2024-03-02T04:11:50;14.43;;;7.68;;
77978;SDS011;67169;50.268;8.694;2024-03-02T04:14:17;16.92;;;8.07;;
77978;SDS011;67169;50.268;8.694;2024-03-02T04:16:43;14.40;;;7.28;;
77978;SDS011;67169;50.268;8.694;2024-03-02T04:19:10;13.93;;;6.75;;
77978;SDS011;67169;50.268;8.694;2024-03-02T04:21:37;14.05;;;6.97;;
77978;SDS011;67169;50.268;8.694;2024-03-02T04:24:04;14.00;;;7.25;;
77978;SDS011;67169;50.268;8.694;2024-03-02T04:26:31;13.45;;;7.13;;
77978;SDS011;67169;50.268;8.694;2024-03-02T04:28:57;14.35;;;7.40;;
77978;SDS011;67169;50.268;8.694;2024-03-02T04:31:24;16.52;;;7.85;;
77978;SDS011;67169;50.268;8.694;2024-03-02T04:33:50;14.35;;;7.60;;
77978;SDS011;67169;50.268;8.694;2024-03-02T04:36:17;15.10;;;8.32;;
77978;SDS011;67169;50.268;8.694;2024-03-02T04:38:44;14.15;;;7.45;;
77978;SDS011;67169;50.268;8.694;2024-03-02T04:41:11;13.25;;;6.97;;
77978;SDS011;67169;50.268;8.694;2024-03-02T04:43:37;17.58;;;7.38;;
77978;SDS011;67169;50.268;8.694;2024-03-02T04:46:04;17.70;;;8.10;;
77978;SDS011;67169;50.268;8.694;2024-03-02T04:48:31;10.15;;;6.85;;
77978;SDS011;67169;50.268;8.694;2024-03-02T04:50:58;15.15;;;7.55;;
77978;SDS011;67169;50.268;8.694;2024-03-02T04:53:24;20.73;;;8.30;;
77978;SDS011;67169;50.268;8.694;2024-03-02T04:55:52;18.23;;;8.43;;
77978;SDS011;67169;50.268;8.694;2024-03-02T04:58:44;13.18;;;8.02;;
77978;SDS011;67169;50.268;8.694;2024-03-02T05:01:11;15.85;;;8.20;;
77978;SDS011;67169;50.268;8.694;2024-03-02T05:03:37;22.65;;;8.93;;
77978;SDS011;67169;50.268;8.694;2024-03-02T05:06:04;17.38;;;9.10;;
77978;SDS011;67169;50.268;8.694;2024-03-02T05:08:30;20.50;;;9.43;;
77978;SDS011;67169;50.268;8.694;2024-03-02T05:10:58;17.10;;;7.50;;
77978;SDS011;67169;50.268;8.694;2024-03-02T05:13:45;14.60;;;8.02;;
77978;SDS011;67169;50.268;8.694;2024-03-02T05:16:10;16.33;;;8.20;;
77978;SDS011;67169;50.268;8.694;2024-03-02T05:18:37;16.20;;;8.07;;
77978;SDS011;67169;50.268;8.694;2024-03-02T05:21:04;17.58;;;9.10;;
77978;SDS011;67169;50.268;8.694;2024-03-02T05:23:30;17.60;;;8.48;;
77978;SDS011;67169;50.268;8.694;2024-03-02T05:25:58;20.48;;;8.23;;
77978;SDS011;67169;50.268;8.694;2024-03-02T05:28:24;13.38;;;8.18;;
77978;SDS011;67169;50.268;8.694;2024-03-02T05:30:51;13.00;;;7.15;;
77978;SDS011;67169;50.268;8.694;2024-03-02T05:33:17;13.38;;;7.30;;
77978;SDS011;67169;50.268;8.694;2024-03-02T05:35:47;16.90;;;7.93;;
77978;SDS011;67169;50.268;8.694;2024-03-02T05:38:14;17.33;;;8.35;;
77978;SDS011;67169;50.268;8.694;2024-03-02T05:40:41;12.70;;;7.25;;
77978;SDS011;67169;50.268;8.694;2024-03-02T05:43:09;18.50;;;8.43;;
77978;SDS011;67169;50.268;8.694;2024-03-02T05:45:35;16.30;;;8.73;;
77978;SDS011;67169;50.268;8.694;2024-03-02T05:48:02;16.20;;;7.30;;
77978;SDS011;67169;50.268;8.694;2024-03-02T05:50:29;17.90;;;7.20;;
77978;SDS011;67169;50.268;8.694;2024-03-02T05:52:55;15.75;;;8.55;;
77978;SDS011;67169;50.268;8.694;2024-03-02T05:55:22;12.82;;;7.38;;
77978;SDS011;67169;50.268;8.694;2024-03-02T05:57:48;18.00;;;8.93;;
77978;SDS011;67169;50.268;8.694;2024-03-02T06:00:29;17.98;;;8.50;;
77978;SDS011;67169;50.268;8.694;2024-03-02T06:02:56;19.08;;;9.45;;
77978;SDS011;67169;50.268;8.694;2024-03-02T06:05:22;17.25;;;8.52;;
77978;SDS011;67169;50.268;8.694;2024-03-02T06:07:49;22.23;;;9.48;;
77978;SDS011;67169;50.268;8.694;2024-03-02T06:10:16;18.90;;;8.43;;
77978;SDS011;67169;50.268;8.694;2024-03-02T06:12:42;17.88;;;7.47;;
77978;SDS011;67169;50.268;8.694;2024-03-02T06:15:09;17.23;;;8.98;;
77978;SDS011;67169;50.268;8.694;2024-03-02T06:17:37;16.15;;;8.40;;
77978;SDS011;67169;50.268;8.694;2024-03-02T06:20:05;13.05;;;7.88;;
77978;SDS011;67169;50.268;8.694;2024-03-02T06:22:33;21.10;;;8.50;;
77978;SDS011;67169;50.268;8.694;2024-03-02T06:25:00;16.92;;;8.82;;
77978;SDS011;67169;50.268;8.694;2024-03-02T06:27:27;17.58;;;8.15;;
77978;SDS011;67169;50.268;8.694;2024-03-02T06:29:53;19.63;;;8.98;;
77978;SDS011;67169;50.268;8.694;2024-03-02T06:32:20;18.67;;;9.32;;
77978;SDS011;67169;50.268;8.694;2024-03-02T06:34:49;15.90;;;8.90;;
77978;SDS011;67169;50.268;8.694;2024-03-02T06:37:15;17.65;;;9.38;;
77978;SDS011;67169;50.268;8.694;2024-03-02T06:39:43;17.98;;;9.40;;
77978;SDS011;67169;50.268;8.694;2024-03-02T06:42:09;18.98;;;10.00;;
77978;SDS011;67169;50.268;8.694;2024-03-02T06:44:36;16.75;;;8.02;;
77978;SDS011;67169;50.268;8.694;2024-03-02T06:47:02;20.13;;;8.30;;
77978;SDS011;67169;50.268;8.694;2024-03-02T06:49:29;18.80;;;8.48;;
77978;SDS011;67169;50.268;8.694;2024-03-02T06:51:57;23.80;;;7.93;;
77978;SDS011;67169;50.268;8.694;2024-03-02T06:54:23;19.77;;;10.32;;
77978;SDS011;67169;50.268;8.694;2024-03-02T06:56:49;17.48;;;8.13;;
77978;SDS011;67169;50.268;8.694;2024-03-02T06:59:16;16.92;;;7.55;;
77978;SDS011;67169;50.268;8.694;2024-03-02T07:01:42;15.13;;;8.55;;
77978;SDS011;67169;50.268;8.694;2024-03-02T07:04:09;18.17;;;10.07;;
77978;SDS011;67169;50.268;8.694;2024-03-02T07:06:36;20.63;;;10.02;;
77978;SDS011;67169;50.268;8.694;2024-03-02T07:09:03;19.52;;;9.80;;
77978;SDS011;67169;50.268;8.694;2024-03-02T07:11:32;21.35;;;9.77;;
77978;SDS011;67169;50.268;8.694;2024-03-02T07:13:58;19.80;;;9.52;;
77978;SDS011;67169;50.268;8.694;2024-03-02T07:16:24;19.65;;;9.73;;
77978;SDS011;67169;50.268;8.694;2024-03-02T07:18:55;16.83;;;9.27;;
77978;SDS011;67169;50.268;8.694;2024-03-02T07:21:21;17.60;;;8.93;;
77978;SDS011;67169;50.268;8.694;2024-03-02T07:23:48;19.02;;;10.27;;
77978;SDS011;67169;50.268;8.694;2024-03-02T07:26:16;17.75;;;9.20;;
77978;SDS011;67169;50.268;8.694;2024-03-02T07:28:44;15.88;;;8.35;;
77978;SDS011;67169;50.268;8.694;2024-03-02T07:31:11;16.42;;;8.50;;
77978;SDS011;67169;50.268;8.694;2024-03-02T07:33:38;17.85;;;8.52;;
77978;SDS011;67169;50.268;8.694;2024-03-02T07:36:04;14.23;;;7.43;;
77978;SDS011;67169;50.268;8.694;2024-03-02T07:38:31;14.82;;;8.45;;
77978;SDS011;67169;50.268;8.694;2024-03-02T07:40:59;18.10;;;8.80;;
77978;SDS011;67169;50.268;8.694;2024-03-02T07:43:27;12.95;;;7.93;;
77978;SDS011;67169;50.268;8.694;2024-03-02T07:45:54;16.45;;;8.25;;
77978;SDS011;67169;50.268;8.694;2024-03-02T07:48:20;14.95;;;8.68;;
77978;SDS011;67169;50.268;8.694;2024-03-02T07:50:47;19.02;;;8.75;;
77978;SDS011;67169;50.268;8.694;2024-03-02T07:53:13;16.90;;;8.95;;
77978;SDS011;67169;50.268;8.694;2024-03-02T07:55:40;14.00;;;8.70;;
77978;SDS011;67169;50.268;8.694;2024-03-02T07:58:06;15.57;;;9.50;;
77978;SDS011;67169;50.268;8.694;2024-03-02T08:00:34;16.48;;;8.95;;
77978;SDS011;67169;50.268;8.694;2024-03-02T08:03:01;15.05;;;9.77;;
77978;SDS011;67169;50.268;8.694;2024-03-02T08:05:28;18.58;;;9.52;;
77978;SDS011;67169;50.268;8.694;2024-03-02T08:07:55;16.60;;;10.02;;
77978;SDS011;67169;50.268;8.694;2024-03-02T08:10:21;14.18;;;7.55;;
77978;SDS011;67169;50.268;8.694;2024-03-02T08:12:48;11.55;;;6.40;;
77978;SDS011;67169;50.268;8.694;2024-03-02T08:15:15;12.73;;;6.88;;
77978;SDS011;67169;50.268;8.694;2024-03-02T08:17:43;12.52;;;7.65;;
77978;SDS011;67169;50.268;8.694;2024-03-02T08:20:13;16.38;;;6.85;;
77978;SDS011;67169;50.268;8.694;2024-03-02T08:22:40;12.48;;;7.45;;
77978;SDS011;67169;50.268;8.694;2024-03-02T08:25:07;12.90;;;7.05;;
77978;SDS011;67169;50.268;8.694;2024-03-02T08:27:34;14.00;;;6.78;;
77978;SDS011;67169;50.268;8.694;2024-03-02T08:30:01;13.10;;;6.28;;
77978;SDS011;67169;50.268;8.694;2024-03-02T08:32:31;13.93;;;6.95;;
77978;SDS011;67169;50.268;8.694;2024-03-02T08:34:59;12.60;;;6.38;;
77978;SDS011;67169;50.268;8.694;2024-03-02T08:37:25;10.73;;;6.45;;
77978;SDS011;67169;50.268;8.694;2024-03-02T08:39:52;9.20;;;6.32;;
77978;SDS011;67169;50.268;8.694;2024-03-02T08:42:18;12.23;;;6.07;;
77978;SDS011;67169;50.268;8.694;2024-03-02T08:44:45;13.25;;;7.35;;
77978;SDS011;67169;50.268;8.694;2024-03-02T08:47:11;12.73;;;7.70;;
77978;SDS011;67169;50.268;8.694;2024-03-02T08:49:38;10.88;;;6.15;;
77978;SDS011;67169;50.268;8.694;2024-03-02T08:52:06;11.25;;;6.13;;
77978;SDS011;67169;50.268;8.694;2024-03-02T08:54:32;11.15;;;5.60;;
77978;SDS011;67169;50.268;8.694;2024-03-02T08:57:00;12.65;;;6.45;;
77978;SDS011;67169;50.268;8.694;2024-03-02T08:59:27;10.77;;;6.30;;
77978;SDS011;67169;50.268;8.694;2024-03-02T09:01:53;9.63;;;5.53;;
77978;SDS011;67169;50.268;8.694;2024-03-02T09:04:20;11.68;;;6.70;;
77978;SDS011;67169;50.268;8.694;2024-03-02T09:06:46;12.13;;;6.30;;
77978;SDS011;67169;50.268;8.694;2024-03-02T09:09:14;11.93;;;6.03;;
77978;SDS011;67169;50.268;8.694;2024-03-02T09:11:41;12.75;;;6.35;;
77978;SDS011;67169;50.268;8.694;2024-03-02T09:14:07;11.13;;;6.03;;
77978;SDS011;67169;50.268;8.694;2024-03-02T09:16:34;11.20;;;5.93;;
77978;SDS011;67169;50.268;8.694;2024-03-02T09:19:00;10.88;;;6.22;;
77978;SDS011;67169;50.268;8.694;2024-03-02T09:21:27;10.45;;;5.53;;
77978;SDS011;67169;50.268;8.694;2024-03-02T09:23:55;13.85;;;7.10;;
77978;SDS011;67169;50.268;8.694;2024-03-02T09:26:22;12.43;;;6.45;;
77978;SDS011;67169;50.268;8.694;2024-03-02T09:28:49;13.90;;;6.60;;
77978;SDS011;67169;50.268;8.694;2024-03-02T09:31:16;12.20;;;6.90;;
77978;SDS011;67169;50.268;8.694;2024-03-02T09:33:42;11.38;;;6.43;;
77978;SDS011;67169;50.268;8.694;2024-03-02T09:36:16;10.85;;;6.00;;
77978;SDS011;67169;50.268;8.694;2024-03-02T09:38:43;13.38;;;7.60;;
77978;SDS011;67169;50.268;8.694;2024-03-02T09:41:09;11.88;;;6.40;;
77978;SDS011;67169;50.268;8.694;2024-03-02T09:43:37;10.05;;;6.25;;
77978;SDS011;67169;50.268;8.694;2024-03-02T09:46:04;9.55;;;5.70;;
77978;SDS011;67169;50.268;8.694;2024-03-02T09:48:31;9.73;;;6.47;;
77978;SDS011;67169;50.268;8.694;2024-03-02T09:50:57;9.02;;;5.93;;
77978;SDS011;67169;50.268;8.694;2024-03-02T09:55:57;9.93;;;4.68;;
77978;SDS011;67169;50.268;8.694;2024-03-02T09:58:23;10.48;;;5.75;;
77978;SDS011;67169;50.268;8.694;2024-03-02T10:00:51;9.60;;;5.30;;
77978;SDS011;67169;50.268;8.694;2024-03-02T10:03:18;9.35;;;4.90;;
77978;SDS011;67169;50.268;8.694;2024-03-02T10:05:46;10.98;;;6.60;;
77978;SDS011;67169;50.268;8.694;2024-03-02T10:08:12;10.93;;;6.05;;
77978;SDS011;67169;50.268;8.694;2024-03-02T10:10:39;10.30;;;5.93;;
77978;SDS011;67169;50.268;8.694;2024-03-02T10:13:08;12.30;;;6.28;;
77978;SDS011;67169;50.268;8.694;2024-03-02T10:18:04;10.40;;;5.40;;
77978;SDS011;67169;50.268;8.694;2024-03-02T10:20:34;11.50;;;6.28;;
77978;SDS011;67169;50.268;8.694;2024-03-02T10:23:10;9.32;;;5.95;;
77978;SDS011;67169;50.268;8.694;2024-03-02T10:25:37;9.40;;;6.43;;
77978;SDS011;67169;50.268;8.694;2024-03-02T10:28:04;9.82;;;5.72;;
77978;SDS011;67169;50.268;8.694;2024-03-02T10:30:31;9.38;;;6.15;;
77978;SDS011;67169;50.268;8.694;2024-03-02T10:32:58;11.77;;;6.07;;
77978;SDS011;67169;50.268;8.694;2024-03-02T10:35:26;8.63;;;5.15;;
77978;SDS011;67169;50.268;8.694;2024-03-02T10:37:52;9.00;;;5.03;;
77978;SDS011;67169;50.268;8.694;2024-03-02T10:40:21;8.38;;;4.53;;
77978;SDS011;67169;50.268;8.694;2024-03-02T10:42:47;8.70;;;4.32;;
77978;SDS011;67169;50.268;8.694;2024-03-02T10:45:16;6.63;;;4.28;;
77978;SDS011;67169;50.268;8.694;2024-03-02T10:47:44;7.28;;;4.30;;
77978;SDS011;67169;50.268;8.694;2024-03-02T10:50:12;8.35;;;4.57;;
77978;SDS011;67169;50.268;8.694;2024-03-02T10:52:41;8.82;;;4.53;;
77978;SDS011;67169;50.268;8.694;2024-03-02T10:55:08;7.00;;;4.70;;
77978;SDS011;67169;50.268;8.694;2024-03-02T10:57:40;8.65;;;4.90;;
77978;SDS011;67169;50.268;8.694;2024-03-02T11:00:11;8.68;;;5.05;;
77978;SDS011;67169;50.268;8.694;2024-03-02T11:02:40;9.13;;;5.53;;
77978;SDS011;67169;50.268;8.694;2024-03-02T11:05:13;7.60;;;4.93;;
77978;SDS011;67169;50.268;8.694;2024-03-02T11:07:47;9.00;;;4.90;;
77978;SDS011;67169;50.268;8.694;2024-03-02T11:10:14;7.95;;;5.18;;
77978;SDS011;67169;50.268;8.694;2024-03-02T11:15:15;9.38;;;4.93;;
77978;SDS011;67169;50.268;8.694;2024-03-02T11:17:45;9.07;;;4.78;;
77978;SDS011;67169;50.268;8.694;2024-03-02T11:22:39;8.63;;;4.75;;
77978;SDS011;67169;50.268;8.694;2024-03-02T11:25:07;8.73;;;5.50;;
77978;SDS011;67169;50.268;8.694;2024-03-02T11:27:59;9.60;;;5.22;;
77978;SDS011;67169;50.268;8.694;2024-03-02T11:35:55;7.95;;;4.45;;
77978;SDS011;67169;50.268;8.694;2024-03-02T11:38:22;7.38;;;4.93;;
77978;SDS011;67169;50.268;8.694;2024-03-02T11:40:51;10.23;;;4.60;;
77978;SDS011;67169;50.268;8.694;2024-03-02T11:43:18;8.23;;;4.72;;
77978;SDS011;67169;50.268;8.694;2024-03-02T11:45:45;9.02;;;4.85;;
77978;SDS011;67169;50.268;8.694;2024-03-02T11:48:13;6.95;;;4.32;;
77978;SDS011;67169;50.268;8.694;2024-03-02T11:50:41;11.40;;;5.32;;
77978;SDS011;67169;50.268;8.694;2024-03-02T11:53:09;8.50;;;5.00;;
77978;SDS011;67169;50.268;8.694;2024-03-02T11:55:37;5.53;;;3.85;;
77978;SDS011;67169;50.268;8.694;2024-03-02T11:58:07;7.57;;;3.97;;
77978;SDS011;67169;50.268;8.694;2024-03-02T12:00:34;6.90;;;5.05;;
77978;SDS011;67169;50.268;8.694;2024-03-02T12:03:00;5.82;;;4.05;;
77978;SDS011;67169;50.268;8.694;2024-03-02T12:05:28;7.60;;;4.20;;
77978;SDS011;67169;50.268;8.694;2024-03-02T12:10:23;6.45;;;4.55;;
77978;SDS011;67169;50.268;8.694;2024-03-02T12:12:54;7.20;;;4.55;;
77978;SDS011;67169;50.268;8.694;2024-03-02T12:15:24;7.15;;;4.38;;
77978;SDS011;67169;50.268;8.694;2024-03-02T12:17:52;5.70;;;4.50;;
77978;SDS011;67169;50.268;8.694;2024-03-02T12:20:20;7.45;;;4.07;;
77978;SDS011;67169;50.268;8.694;2024-03-02T12:22:46;5.63;;;3.80;;
77978;SDS011;67169;50.268;8.694;2024-03-02T12:25:13;5.90;;;3.60;;
77978;SDS011;67169;50.268;8.694;2024-03-02T12:27:41;5.45;;;3.33;;
77978;SDS011;67169;50.268;8.694;2024-03-02T12:30:09;5.68;;;4.07;;
77978;SDS011;67169;50.268;8.694;2024-03-02T12:32:38;6.38;;;4.25;;
77978;SDS011;67169;50.268;8.694;2024-03-02T12:35:05;5.75;;;4.20;;
77978;SDS011;67169;50.268;8.694;2024-03-02T12:39:59;5.72;;;3.70;;
77978;SDS011;67169;50.268;8.694;2024-03-02T12:42:26;5.57;;;3.63;;
77978;SDS011;67169;50.268;8.694;2024-03-02T12:44:53;6.40;;;4.03;;
77978;SDS011;67169;50.268;8.694;2024-03-02T12:47:20;4.07;;;3.17;;
77978;SDS011;67169;50.268;8.694;2024-03-02T12:49:48;6.28;;;3.53;;
77978;SDS011;67169;50.268;8.694;2024-03-02T12:52:17;6.35;;;3.53;;
77978;SDS011;67169;50.268;8.694;2024-03-02T12:54:44;6.78;;;3.28;;
77978;SDS011;67169;50.268;8.694;2024-03-02T12:57:10;3.72;;;3.20;;
77978;SDS011;67169;50.268;8.694;2024-03-02T12:59:44;4.30;;;2.90;;
77978;SDS011;67169;50.268;8.694;2024-03-02T13:02:16;6.07;;;3.50;;
77978;SDS011;67169;50.268;8.694;2024-03-02T13:04:43;5.55;;;3.92;;
77978;SDS011;67169;50.268;8.694;2024-03-02T13:07:11;6.00;;;4.28;;
77978;SDS011;67169;50.268;8.694;2024-03-02T13:09:38;4.10;;;3.38;;
77978;SDS011;67169;50.268;8.694;2024-03-02T13:12:05;7.03;;;3.97;;
77978;SDS011;67169;50.268;8.694;2024-03-02T13:14:32;4.85;;;2.97;;
77978;SDS011;67169;50.268;8.694;2024-03-02T13:17:00;5.82;;;3.22;;
77978;SDS011;67169;50.268;8.694;2024-03-02T13:19:29;4.88;;;3.42;;
77978;SDS011;67169;50.268;8.694;2024-03-02T13:21:56;4.93;;;3.00;;
77978;SDS011;67169;50.268;8.694;2024-03-02T13:24:24;5.70;;;3.25;;
77978;SDS011;67169;50.268;8.694;2024-03-02T13:26:53;4.60;;;3.13;;
77978;SDS011;67169;50.268;8.694;2024-03-02T13:29:22;4.03;;;2.80;;
77978;SDS011;67169;50.268;8.694;2024-03-02T13:31:48;4.45;;;3.15;;
77978;SDS011;67169;50.268;8.694;2024-03-02T13:34:15;4.25;;;3.20;;
77978;SDS011;67169;50.268;8.694;2024-03-02T13:36:41;4.35;;;3.15;;
77978;SDS011;67169;50.268;8.694;2024-03-02T13:39:08;5.57;;;3.50;;
77978;SDS011;67169;50.268;8.694;2024-03-02T13:41:37;5.15;;;3.33;;
77978;SDS011;67169;50.268;8.694;2024-03-02T13:44:03;3.97;;;2.60;;
77978;SDS011;67169;50.268;8.694;2024-03-02T13:46:30;5.25;;;3.13;;
77978;SDS011;67169;50.268;8.694;2024-03-02T13:48:56;3.47;;;2.70;;
77978;SDS011;67169;50.268;8.694;2024-03-02T13:51:23;3.75;;;2.60;;
77978;SDS011;67169;50.268;8.694;2024-03-02T13:53:50;5.25;;;3.00;;
77978;SDS011;67169;50.268;8.694;2024-03-02T13:56:17;3.00;;;2.10;;
77978;SDS011;67169;50.268;8.694;2024-03-02T13:58:45;3.70;;;2.38;;
77978;SDS011;67169;50.268;8.694;2024-03-02T14:01:11;3.72;;;2.75;;
77978;SDS011;67169;50.268;8.694;2024-03-02T14:03:38;4.30;;;2.75;;
77978;SDS011;67169;50.268;8.694;2024-03-02T14:06:04;2.65;;;1.98;;
77978;SDS011;67169;50.268;8.694;2024-03-02T14:08:31;3.53;;;1.83;;
77978;SDS011;67169;50.268;8.694;2024-03-02T14:10:59;4.63;;;1.85;;
77978;SDS011;67169;50.268;8.694;2024-03-02T14:13:27;3.05;;;2.10;;
77978;SDS011;67169;50.268;8.694;2024-03-02T14:15:55;2.58;;;1.35;;
77978;SDS011;67169;50.268;8.694;2024-03-02T14:18:23;3.28;;;2.10;;
77978;SDS011;67169;50.268;8.694;2024-03-02T14:20:49;3.30;;;2.45;;
77978;SDS011;67169;50.268;8.694;2024-03-02T14:23:17;3.65;;;1.60;;
77978;SDS011;67169;50.268;8.694;2024-03-02T14:25:44;2.53;;;1.60;;
77978;SDS011;67169;50.268;8.694;2024-03-02T14:28:11;2.60;;;1.85;;
77978;SDS011;67169;50.268;8.694;2024-03-02T14:30:38;2.92;;;1.60;;
77978;SDS011;67169;50.268;8.694;2024-03-02T14:33:06;1.95;;;1.73;;
77978;SDS011;67169;50.268;8.694;2024-03-02T14:35:32;3.20;;;1.50;;
77978;SDS011;67169;50.268;8.694;2024-03-02T14:37:59;3.17;;;1.70;;
77978;SDS011;67169;50.268;8.694;2024-03-02T14:40:25;3.15;;;1.50;;
77978;SDS011;67169;50.268;8.694;2024-03-02T14:42:54;2.08;;;1.30;;
77978;SDS011;67169;50.268;8.694;2024-03-02T14:45:20;1.77;;;1.13;;
77978;SDS011;67169;50.268;8.694;2024-03-02T14:47:48;1.48;;;1.10;;
77978;SDS011;67169;50.268;8.694;2024-03-02T14:50:16;2.03;;;1.35;;
77978;SDS011;67169;50.268;8.694;2024-03-02T14:52:43;1.65;;;1.00;;
77978;SDS011;67169;50.268;8.694;2024-03-02T14:55:10;2.22;;;0.98;;
77978;SDS011;67169;50.268;8.694;2024-03-02T14:57:36;1.83;;;1.08;;
77978;SDS011;67169;50.268;8.694;2024-03-02T15:00:03;1.52;;;1.00;;
77978;SDS011;67169;50.268;8.694;2024-03-02T15:02:33;1.60;;;1.02;;
77978;SDS011;67169;50.268;8.694;2024-03-02T15:04:59;5.85;;;1.35;;
77978;SDS011;67169;50.268;8.694;2024-03-02T15:07:27;1.52;;;1.10;;